To NAV CANADA Home Page Login to a new session Search on AWWS site Feedback and Comments Disclaimer Vers la page française équivalente Tips FAQ What's new on the site To the Forecasts and Observations / NOTAM section To "File a Flight Plan" website Publications and other links Update of the User's profile FIC Telephone Numbers My Weather Data Folder Route Weather Data Regional Weather Data Local Weather Data To the Forecasts and Observations / NOTAM section
Request Generated 01/17/2017 at 04:51:39 UTC . Weather information available at that time is displayed.

METAR/TAF

MONTREAL INTL (MIRABEL)/QC    

METAR CYMX 170400Z 25006KT 25SM BKN038 OVC110 M02/M04 A3020 RMK
SC5AC3 SLP232=
METAR CYMX 170300Z 23006KT 20SM BKN110 BKN130 M01/M03 A3019 RMK
AC5AC2 SLP229=
METAR CYMX 170200Z 24007KT 25SM SCT100 M01/M03 A3019 RMK AC3 SLP230=

TAF CYMX 162338Z 1700/1724 24008KT P6SM FEW030
FM170900 VRB03KT P6SM FEW008 BKN025
BECMG 1714/1716 06010KT
FM171800 06010KT P6SM SCT030 BKN200
FM172200 05010KT P6SM BKN030 OVC100
RMK NXT FCST BY 170600Z=
Your time UTC time
Weather data provided by Environment Canada and NAV CANADA